createdAt,value
2022-09-05T00:00:20.097Z,1022.7
2022-09-05T00:05:20.103Z,1022.8
2022-09-05T00:10:20.667Z,1022.8
2022-09-05T00:15:20.109Z,1022.8
2022-09-05T00:24:23.472Z,1022.8
2022-09-05T00:25:30.905Z,1022.8
2022-09-05T00:31:06.345Z,1022.8
2022-09-05T00:35:20.105Z,1022.8
2022-09-05T00:40:20.156Z,1022.7
2022-09-05T00:45:20.101Z,1022.7
2022-09-05T00:50:20.115Z,1022.7
2022-09-05T00:55:20.102Z,1022.8
2022-09-05T01:00:20.103Z,1022.9
2022-09-05T01:05:20.117Z,1023
2022-09-05T01:10:23.442Z,1022.9
2022-09-05T01:15:20.094Z,1023
2022-09-05T01:20:20.379Z,1023
2022-09-05T01:25:20.095Z,1023
2022-09-05T01:30:20.106Z,1022.9
2022-09-05T01:35:20.101Z,1023
2022-09-05T01:40:20.189Z,1023
2022-09-05T01:45:20.100Z,1023
2022-09-05T01:50:20.099Z,1023
2022-09-05T01:55:20.108Z,1022.9
2022-09-05T02:00:20.103Z,1022.9
2022-09-05T02:05:20.785Z,1022.9
2022-09-05T02:10:20.111Z,1022.9
2022-09-05T02:15:20.104Z,1022.8
2022-09-05T02:20:23.402Z,1022.9
2022-09-05T02:25:30.701Z,1022.9
2022-09-05T02:30:20.101Z,1022.9
2022-09-05T02:35:20.111Z,1022.9
2022-09-05T02:43:15.693Z,1022.8
2022-09-05T02:45:28.047Z,1022.9
2022-09-05T02:51:05.541Z,1022.8
2022-09-05T02:57:30.925Z,1022.7
2022-09-05T03:00:20.111Z,1022.6
2022-09-05T03:05:20.122Z,1022.7
2022-09-05T03:10:20.100Z,1022.7
2022-09-05T03:15:22.692Z,1022.7
2022-09-05T03:20:20.099Z,1022.7
2022-09-05T03:25:20.099Z,1022.6
2022-09-05T03:30:20.102Z,1022.5
2022-09-05T03:35:20.108Z,1022.6
2022-09-05T03:40:20.163Z,1022.6
2022-09-05T03:45:26.955Z,1022.6
2022-09-05T03:51:20.342Z,1022.5
2022-09-05T03:57:09.735Z,1022.6
2022-09-05T04:00:20.105Z,1022.6
2022-09-05T04:08:13.025Z,1022.6
2022-09-05T04:10:20.175Z,1022.6
2022-09-05T04:15:20.113Z,1022.7
2022-09-05T04:20:20.105Z,1022.6
2022-09-05T04:25:20.135Z,1022.6
2022-09-05T04:30:38.077Z,1022.8
2022-09-05T04:35:20.121Z,1022.6
2022-09-05T04:40:20.104Z,1022.7
2022-09-05T04:45:24.473Z,1022.7
2022-09-05T04:50:21.380Z,1022.8
2022-09-05T04:55:20.106Z,1022.9
2022-09-05T05:01:32.486Z,1023.1
2022-09-05T05:06:07.071Z,1023.1
2022-09-05T05:10:41.837Z,1023.1
2022-09-05T05:18:05.476Z,1023.3
2022-09-05T05:20:41.131Z,1023.3
2022-09-05T05:25:20.105Z,1023.4
2022-09-05T05:30:20.106Z,1023.4
2022-09-05T05:35:20.105Z,1023.5
2022-09-05T05:40:20.096Z,1023.5
2022-09-05T05:45:20.093Z,1023.5
2022-09-05T05:50:20.106Z,1023.5
2022-09-05T05:55:33.924Z,1023.5
2022-09-05T06:00:24.640Z,1023.6
2022-09-05T06:05:20.096Z,1023.6
2022-09-05T06:13:14.607Z,1023.7
2022-09-05T06:15:22.921Z,1023.7
2022-09-05T06:20:31.577Z,1023.7
2022-09-05T06:25:20.099Z,1023.7
2022-09-05T06:30:20.108Z,1023.6
2022-09-05T06:35:20.104Z,1023.6
2022-09-05T06:40:20.095Z,1023.7
2022-09-05T06:45:27.237Z,1023.8
2022-09-05T06:50:23.910Z,1023.7
2022-09-05T06:55:20.101Z,1023.8
2022-09-05T07:00:22.459Z,1023.7
2022-09-05T07:05:24.320Z,1023.7
2022-09-05T07:10:37.781Z,1023.7
2022-09-05T07:15:20.100Z,1023.7
2022-09-05T07:20:20.222Z,1023.7
2022-09-05T07:25:20.106Z,1023.7
2022-09-05T07:30:20.104Z,1023.6
2022-09-05T07:35:20.127Z,1023.6
2022-09-05T07:40:25.497Z,1023.7
2022-09-05T07:45:20.151Z,1023.7
2022-09-05T07:50:27.954Z,1023.6
2022-09-05T07:56:57.116Z,1023.7
2022-09-05T08:00:23.169Z,1023.7
2022-09-05T08:05:23.597Z,1023.7
2022-09-05T08:10:20.785Z,1023.7
2022-09-05T08:15:20.109Z,1023.6
2022-09-05T08:20:20.107Z,1023.6
2022-09-05T08:25:20.164Z,1023.6
2022-09-05T08:30:22.667Z,1023.6
2022-09-05T08:35:20.106Z,1023.4
2022-09-05T08:40:20.163Z,1023.4
2022-09-05T08:46:38.835Z,1023.4
2022-09-05T08:50:20.104Z,1023.3
2022-09-05T08:55:20.111Z,1023.3
2022-09-05T09:00:24.321Z,1023.3
2022-09-05T09:05:20.120Z,1023.2
2022-09-05T09:10:22.732Z,1023.2
2022-09-05T09:15:20.112Z,1023.1
2022-09-05T09:20:20.095Z,1023.1
2022-09-05T09:25:23.634Z,1023.1
2022-09-05T09:30:20.105Z,1023
2022-09-05T09:35:20.177Z,1022.8
2022-09-05T09:40:20.206Z,1022.8
2022-09-05T09:45:21.448Z,1022.6
2022-09-05T09:50:20.103Z,1022.6
2022-09-05T09:55:21.106Z,1022.6
2022-09-05T10:00:20.108Z,1022.5
2022-09-05T10:07:38.214Z,1022.5
2022-09-05T10:11:16.419Z,1022.5
2022-09-05T10:15:31.802Z,1022.4
2022-09-05T10:20:20.098Z,1022.3
2022-09-05T10:25:20.213Z,1022.3
2022-09-05T10:30:25.345Z,1022.2
2022-09-05T10:35:23.439Z,1022.1
2022-09-05T10:40:20.100Z,1022.1
2022-09-05T10:45:20.107Z,1022
2022-09-05T10:50:20.096Z,1021.9
2022-09-05T10:55:20.107Z,1021.8
2022-09-05T11:00:45.818Z,1021.8
2022-09-05T11:05:20.131Z,1021.6
2022-09-05T11:10:20.090Z,1021.6
2022-09-05T11:15:20.102Z,1021.5
2022-09-05T11:20:22.433Z,1021.5
2022-09-05T11:25:21.106Z,1021.4
2022-09-05T11:30:20.271Z,1021.5
2022-09-05T11:39:49.505Z,1021.4
2022-09-05T11:40:27.022Z,1021.3
2022-09-05T11:45:20.101Z,1021.3
2022-09-05T11:50:20.106Z,1021.3
2022-09-05T11:55:20.582Z,1021.4
2022-09-05T12:00:32.324Z,1021.3
2022-09-05T12:05:47.887Z,1021.2
2022-09-05T12:10:43.754Z,1021.2
2022-09-05T12:15:20.109Z,1021.1
2022-09-05T12:20:21.966Z,1021.1
2022-09-05T12:25:26.587Z,1021
2022-09-05T12:30:20.102Z,1020.9
2022-09-05T12:36:09.584Z,1020.9
2022-09-05T12:40:54.417Z,1020.9
2022-09-05T12:45:21.830Z,1020.8
2022-09-05T12:50:20.096Z,1020.7
2022-09-05T12:55:20.107Z,1020.7
2022-09-05T13:02:53.401Z,1020.7
2022-09-05T13:05:20.183Z,1020.6
2022-09-05T13:11:25.458Z,1020.6
2022-09-05T13:15:23.478Z,1020.5
2022-09-05T13:20:20.107Z,1020.4
2022-09-05T13:25:20.098Z,1020.4
2022-09-05T13:30:57.746Z,1020.4
2022-09-05T13:38:09.307Z,1020.3
2022-09-05T13:40:20.201Z,1020.2
2022-09-05T13:45:20.102Z,1020.2
2022-09-05T13:50:20.107Z,1020.1
2022-09-05T13:55:20.117Z,1020.1
2022-09-05T14:00:27.488Z,1020.1
2022-09-05T14:05:20.930Z,1020
2022-09-05T14:10:20.100Z,1020
2022-09-05T14:15:20.116Z,1019.9
2022-09-05T14:20:20.100Z,1019.8
2022-09-05T14:25:20.104Z,1019.9
2022-09-05T14:31:19.718Z,1019.8
2022-09-05T14:37:47.453Z,1019.8
2022-09-05T14:40:29.425Z,1019.8
2022-09-05T14:45:20.105Z,1019.8
2022-09-05T14:50:21.021Z,1019.8
2022-09-05T14:55:20.411Z,1019.8
2022-09-05T15:02:46.518Z,1019.7
2022-09-05T15:05:20.107Z,1019.7
2022-09-05T15:11:26.198Z,1019.7
2022-09-05T15:15:20.108Z,1019.7
2022-09-05T15:20:20.089Z,1019.6
2022-09-05T15:25:20.110Z,1019.6
2022-09-05T15:30:20.100Z,1019.5
2022-09-05T15:35:20.101Z,1019.5
2022-09-05T15:40:22.249Z,1019.4
2022-09-05T15:45:20.107Z,1019.5
2022-09-05T15:50:21.975Z,1019.4
2022-09-05T15:55:20.100Z,1019.4
2022-09-05T16:00:20.104Z,1019.3
2022-09-05T16:07:42.994Z,1019.3
2022-09-05T16:10:32.309Z,1019.3
2022-09-05T16:16:47.681Z,1019.2
2022-09-05T16:23:22.302Z,1019.2
2022-09-05T16:25:20.131Z,1019.2
2022-09-05T16:30:20.102Z,1019.1
2022-09-05T16:35:24.829Z,1019.1
2022-09-05T16:40:20.096Z,1019
2022-09-05T16:45:20.094Z,1019
2022-09-05T16:50:24.165Z,1019
2022-09-05T16:55:21.501Z,1019
2022-09-05T17:00:20.098Z,1019
2022-09-05T17:05:20.107Z,1019
2022-09-05T17:10:20.098Z,1019
2022-09-05T17:15:20.100Z,1019
2022-09-05T17:20:20.104Z,1019
2022-09-05T17:29:22.434Z,1018.9
2022-09-05T17:31:40.997Z,1018.8
2022-09-05T17:35:20.103Z,1018.8
2022-09-05T17:40:20.161Z,1018.8
2022-09-05T17:45:20.150Z,1018.9
2022-09-05T17:50:20.103Z,1018.8
2022-09-05T17:55:20.097Z,1018.8
2022-09-05T18:00:20.091Z,1018.9
2022-09-05T18:05:20.119Z,1018.9
2022-09-05T18:10:27.180Z,1018.9
2022-09-05T18:15:20.119Z,1018.9
2022-09-05T18:20:20.108Z,1018.9
2022-09-05T18:25:27.928Z,1018.9
2022-09-05T18:30:20.472Z,1018.9
2022-09-05T18:35:26.565Z,1019.1
2022-09-05T18:40:36.245Z,1019.1
2022-09-05T18:45:21.966Z,1019.1
2022-09-05T18:50:26.005Z,1019.2
2022-09-05T18:55:31.737Z,1019.1
2022-09-05T19:00:20.098Z,1019.2
2022-09-05T19:05:28.629Z,1019.2
2022-09-05T19:10:34.206Z,1019.2
2022-09-05T19:15:24.703Z,1019.2
2022-09-05T19:20:33.503Z,1019.2
2022-09-05T19:25:20.095Z,1019.2
2022-09-05T19:35:54.423Z,1019.2
2022-09-05T19:37:01.373Z,1019.3
2022-09-05T19:43:42.814Z,1019.3
2022-09-05T19:47:32.066Z,1019.2
2022-09-05T19:50:20.099Z,1019.2
2022-09-05T19:55:20.104Z,1019.2
2022-09-05T20:00:20.106Z,1019.2
2022-09-05T20:05:20.104Z,1019.2
2022-09-05T20:10:20.095Z,1019.1
2022-09-05T20:15:20.109Z,1019.1
2022-09-05T20:20:20.097Z,1019.1
2022-09-05T20:25:35.741Z,1019.1
2022-09-05T20:30:20.096Z,1019.2
2022-09-05T20:37:20.039Z,1019.1
2022-09-05T20:43:13.635Z,1019.1
2022-09-05T20:45:20.111Z,1019.1
2022-09-05T20:54:12.282Z,1019.1
2022-09-05T20:55:38.099Z,1019.2
2022-09-05T21:00:20.098Z,1019
2022-09-05T21:05:21.607Z,1019
2022-09-05T21:10:20.097Z,1019.1
2022-09-05T21:15:21.324Z,1019.1
2022-09-05T21:20:20.096Z,1019.1
2022-09-05T21:25:20.108Z,1019.1
2022-09-05T21:30:20.107Z,1019.2
2022-09-05T21:35:33.978Z,1019.2
2022-09-05T21:40:20.183Z,1019.2
2022-09-05T21:47:37.193Z,1019.3
2022-09-05T21:50:21.244Z,1019.3
2022-09-05T21:57:50.658Z,1019.3
2022-09-05T22:00:20.101Z,1019.3
2022-09-05T22:05:20.118Z,1019.4
2022-09-05T22:10:20.096Z,1019.3
2022-09-05T22:15:27.056Z,1019.4
2022-09-05T22:20:20.104Z,1019.4
2022-09-05T22:25:20.116Z,1019.3
2022-09-05T22:30:20.097Z,1019.3
2022-09-05T22:35:28.091Z,1019.3
2022-09-05T22:40:20.100Z,1019.2
2022-09-05T22:45:20.121Z,1019.2
2022-09-05T22:50:20.095Z,1019.2
2022-09-05T22:55:20.098Z,1019.1
2022-09-05T23:00:20.102Z,1019
2022-09-05T23:05:20.103Z,1019.1
2022-09-05T23:10:20.101Z,1019
2022-09-05T23:15:20.112Z,1018.9
2022-09-05T23:20:20.092Z,1019
2022-09-05T23:25:20.116Z,1019
2022-09-05T23:30:20.094Z,1019
2022-09-05T23:35:20.114Z,1019
2022-09-05T23:40:20.150Z,1019
2022-09-05T23:45:20.096Z,1019
2022-09-05T23:50:20.094Z,1019
2022-09-05T23:55:20.103Z,1019
